createdAt,value
2023-01-09T00:00:39.418Z,10.25
2023-01-09T00:01:39.275Z,10.2
2023-01-09T00:02:39.439Z,10.19
2023-01-09T00:03:39.254Z,10.25
2023-01-09T00:04:39.061Z,10.25
2023-01-09T00:05:39.534Z,10.23
2023-01-09T00:06:39.390Z,10.3
2023-01-09T00:07:39.133Z,10.23
2023-01-09T00:08:39.397Z,10.31
2023-01-09T00:09:39.398Z,10.28
2023-01-09T00:10:39.485Z,10.2
2023-01-09T00:11:39.451Z,10.22
2023-01-09T00:12:39.471Z,10.17
2023-01-09T00:13:38.955Z,10.2
2023-01-09T00:14:39.231Z,10.2
2023-01-09T00:15:39.251Z,10.26
2023-01-09T00:16:39.406Z,10.17
2023-01-09T00:17:39.527Z,10.23
2023-01-09T00:18:39.291Z,10.23
2023-01-09T00:19:39.554Z,10.31
2023-01-09T00:20:39.579Z,10.22
2023-01-09T00:21:39.647Z,10.26
2023-01-09T00:22:39.613Z,10.26
2023-01-09T00:23:39.635Z,10.31
2023-01-09T00:24:39.828Z,10.15
2023-01-09T00:25:41.033Z,10.25
2023-01-09T00:26:39.687Z,10.33
2023-01-09T00:27:39.699Z,10.25
2023-01-09T00:28:39.434Z,10.16
2023-01-09T00:29:39.459Z,10.26
2023-01-09T00:30:39.635Z,10.25
2023-01-09T00:31:39.738Z,10.23
2023-01-09T00:32:39.790Z,10.3
2023-01-09T00:33:39.777Z,10.22
2023-01-09T00:34:39.788Z,10.3
2023-01-09T00:35:39.860Z,10.26
2023-01-09T00:36:39.836Z,10.22
2023-01-09T00:37:39.873Z,10.31
2023-01-09T00:38:39.600Z,10.17
2023-01-09T00:39:39.872Z,10.25
2023-01-09T00:40:39.892Z,10.26
2023-01-09T00:41:39.898Z,10.22
2023-01-09T00:42:39.958Z,10.26
2023-01-09T00:43:39.925Z,10.26
2023-01-09T00:44:39.937Z,10.26
2023-01-09T00:45:40.114Z,10.31
2023-01-09T00:46:39.976Z,10.25
2023-01-09T00:47:39.735Z,10.33
2023-01-09T00:48:40.025Z,10.31
2023-01-09T00:49:40.051Z,10.3
2023-01-09T00:50:40.114Z,10.2
2023-01-09T00:51:39.805Z,10.3
2023-01-09T00:52:40.100Z,10.26
2023-01-09T00:53:40.138Z,10.26
2023-01-09T00:54:40.109Z,10.2
2023-01-09T00:55:40.136Z,10.3
2023-01-09T00:56:40.136Z,10.25
2023-01-09T00:57:39.913Z,10.25
2023-01-09T00:58:40.197Z,10.22
2023-01-09T00:59:39.925Z,10.23
2023-01-09T01:00:40.204Z,10.34
2023-01-09T01:01:40.462Z,10.25
2023-01-09T01:02:40.309Z,10.28
2023-01-09T01:03:40.277Z,10.23
2023-01-09T01:04:40.265Z,10.31
2023-01-09T01:05:40.308Z,10.3
2023-01-09T01:06:40.307Z,10.26
2023-01-09T01:07:40.141Z,10.31
2023-01-09T01:08:40.347Z,10.31
2023-01-09T01:09:40.463Z,10.25
2023-01-09T01:10:40.379Z,10.31
2023-01-09T01:11:40.369Z,10.26
2023-01-09T01:12:40.404Z,10.25
2023-01-09T01:13:40.399Z,10.25
2023-01-09T01:14:40.475Z,10.26
2023-01-09T01:15:40.447Z,10.25
2023-01-09T01:16:40.542Z,10.31
2023-01-09T01:17:40.477Z,10.22
2023-01-09T01:18:39.964Z,10.31
2023-01-09T01:19:40.244Z,10.31
2023-01-09T01:20:40.260Z,10.31
2023-01-09T01:21:40.267Z,10.28
2023-01-09T01:22:40.286Z,10.26
2023-01-09T01:23:40.332Z,10.26
2023-01-09T01:24:40.265Z,10.28
2023-01-09T01:25:40.383Z,10.23
2023-01-09T01:26:40.615Z,10.26
2023-01-09T01:27:40.635Z,10.25
2023-01-09T01:28:40.648Z,10.26
2023-01-09T01:29:40.646Z,10.26
2023-01-09T01:30:40.839Z,10.23
2023-01-09T01:31:40.673Z,10.25
2023-01-09T01:32:40.704Z,10.28
2023-01-09T01:33:40.714Z,10.28
2023-01-09T01:34:40.735Z,10.23
2023-01-09T01:35:40.486Z,10.25
2023-01-09T01:36:40.769Z,10.3
2023-01-09T01:37:40.525Z,10.3
2023-01-09T01:38:40.557Z,10.31
2023-01-09T01:39:46.816Z,10.3
2023-01-09T01:40:40.827Z,10.26
2023-01-09T01:41:40.887Z,10.25
2023-01-09T01:42:40.855Z,10.28
2023-01-09T01:43:40.618Z,10.25
2023-01-09T01:44:40.891Z,10.26
2023-01-09T01:45:41.007Z,10.25
2023-01-09T01:46:40.688Z,10.2
2023-01-09T01:47:40.940Z,10.31
2023-01-09T01:48:40.694Z,10.31
2023-01-09T01:49:40.712Z,10.23
2023-01-09T01:50:41.006Z,10.33
2023-01-09T01:51:40.997Z,10.3
2023-01-09T01:52:40.751Z,10.3
2023-01-09T01:53:40.787Z,10.3
2023-01-09T01:54:41.047Z,10.31
2023-01-09T01:55:40.820Z,10.34
2023-01-09T01:56:41.093Z,10.26
2023-01-09T01:57:41.147Z,10.28
2023-01-09T01:58:41.104Z,10.26
2023-01-09T01:59:40.868Z,10.25
2023-01-09T02:00:40.873Z,10.28
2023-01-09T02:01:41.652Z,10.28
2023-01-09T02:02:41.300Z,10.28
2023-01-09T02:03:41.556Z,10.26
2023-01-09T02:04:41.199Z,10.3
2023-01-09T02:05:41.225Z,10.25
2023-01-09T02:06:41.297Z,10.22
2023-01-09T02:07:40.986Z,10.23
2023-01-09T02:08:41.262Z,10.31
2023-01-09T02:09:41.286Z,10.23
2023-01-09T02:10:41.293Z,10.31
2023-01-09T02:11:41.716Z,10.31
2023-01-09T02:12:41.093Z,10.25
2023-01-09T02:13:41.397Z,10.25
2023-01-09T02:14:41.097Z,10.31
2023-01-09T02:15:41.422Z,10.25
2023-01-09T02:16:41.397Z,10.26
2023-01-09T02:17:41.743Z,10.31
2023-01-09T02:18:41.611Z,10.22
2023-01-09T02:19:41.178Z,10.31
2023-01-09T02:20:41.210Z,10.26
2023-01-09T02:21:41.206Z,10.31
2023-01-09T02:22:41.492Z,10.28
2023-01-09T02:23:41.510Z,10.31
2023-01-09T02:24:41.712Z,10.23
2023-01-09T02:25:41.535Z,10.3
2023-01-09T02:26:41.564Z,10.23
2023-01-09T02:27:41.327Z,10.31
2023-01-09T02:28:41.323Z,10.3
2023-01-09T02:29:41.633Z,10.25
2023-01-09T02:30:41.616Z,10.28
2023-01-09T02:31:41.907Z,10.22
2023-01-09T02:32:41.385Z,10.26
2023-01-09T02:33:41.660Z,10.25
2023-01-09T02:34:41.692Z,10.31
2023-01-09T02:35:41.433Z,10.22
2023-01-09T02:36:41.714Z,10.25
2023-01-09T02:37:41.713Z,10.23
2023-01-09T02:38:41.727Z,10.25
2023-01-09T02:39:41.745Z,10.23
2023-01-09T02:40:41.763Z,10.23
2023-01-09T02:41:41.820Z,10.25
2023-01-09T02:42:41.957Z,10.23
2023-01-09T02:43:41.831Z,10.23
2023-01-09T02:44:41.960Z,10.22
2023-01-09T02:45:42.034Z,10.17
2023-01-09T02:46:41.866Z,10.26
2023-01-09T02:47:41.883Z,10.25
2023-01-09T02:48:41.899Z,10.17
2023-01-09T02:49:41.897Z,10.3
2023-01-09T02:50:41.953Z,10.17
2023-01-09T02:51:41.943Z,10.31
2023-01-09T02:52:41.961Z,10.19
2023-01-09T02:53:41.972Z,10.19
2023-01-09T02:54:42.002Z,10.13
2023-01-09T02:55:41.734Z,10.31
2023-01-09T02:56:42.032Z,10.17
2023-01-09T02:57:42.033Z,10.22
2023-01-09T02:58:42.045Z,10.23
2023-01-09T02:59:42.086Z,10.17
2023-01-09T03:00:42.163Z,10.13
2023-01-09T03:01:42.316Z,10.12
2023-01-09T03:02:42.293Z,10.16
2023-01-09T03:03:41.856Z,10.13
2023-01-09T03:04:42.144Z,10.3
2023-01-09T03:05:41.905Z,10.19
2023-01-09T03:06:42.342Z,10.22
2023-01-09T03:07:41.945Z,10.19
2023-01-09T03:08:41.948Z,10.26
2023-01-09T03:09:41.971Z,10.22
2023-01-09T03:10:42.156Z,10.17
2023-01-09T03:11:42.247Z,10.22
2023-01-09T03:12:42.262Z,10.2
2023-01-09T03:13:42.029Z,10.3
2023-01-09T03:14:42.034Z,10.16
2023-01-09T03:15:42.354Z,10.17
2023-01-09T03:16:42.510Z,10.23
2023-01-09T03:17:42.414Z,10.15
2023-01-09T03:18:42.122Z,10.16
2023-01-09T03:19:42.376Z,10.2
2023-01-09T03:20:42.391Z,10.22
2023-01-09T03:21:42.157Z,10.15
2023-01-09T03:22:42.457Z,10.16
2023-01-09T03:23:42.439Z,10.13
2023-01-09T03:24:42.666Z,10.23
2023-01-09T03:25:42.230Z,10.15
2023-01-09T03:26:42.479Z,10.17
2023-01-09T03:27:42.506Z,10.19
2023-01-09T03:28:42.523Z,10.22
2023-01-09T03:29:42.527Z,10.17
2023-01-09T03:30:42.289Z,10.25
2023-01-09T03:31:42.501Z,10.16
2023-01-09T03:32:42.600Z,10.2
2023-01-09T03:33:42.660Z,10.2
2023-01-09T03:34:42.629Z,10.12
2023-01-09T03:35:42.649Z,10.16
2023-01-09T03:36:42.383Z,10.16
2023-01-09T03:37:42.699Z,10.2
2023-01-09T03:38:42.720Z,10.12
2023-01-09T03:39:42.698Z,10.17
2023-01-09T03:40:42.471Z,10.2
2023-01-09T03:41:42.732Z,10.25
2023-01-09T03:42:42.475Z,10.17
2023-01-09T03:43:42.762Z,10.19
2023-01-09T03:44:42.766Z,10.19
2023-01-09T03:45:42.948Z,10.15
2023-01-09T03:46:42.805Z,10.16
2023-01-09T03:47:42.828Z,10.16
2023-01-09T03:48:42.831Z,10.19
2023-01-09T03:49:42.851Z,10.17
2023-01-09T03:50:42.624Z,10.19
2023-01-09T03:51:42.875Z,10.16
2023-01-09T03:52:42.932Z,10.17
2023-01-09T03:53:42.920Z,10.19
2023-01-09T03:54:42.963Z,10.1
2023-01-09T03:55:42.928Z,10.22
2023-01-09T03:56:42.691Z,10.16
2023-01-09T03:57:42.990Z,10.17
2023-01-09T03:58:42.994Z,10.13
2023-01-09T03:59:43.020Z,10.13
2023-01-09T04:00:42.755Z,10.13
2023-01-09T04:01:43.427Z,10.13
2023-01-09T04:02:43.047Z,10.1
2023-01-09T04:03:43.033Z,10.2
2023-01-09T04:04:43.089Z,10.2
2023-01-09T04:05:43.159Z,10.2
2023-01-09T04:06:43.125Z,10.2
2023-01-09T04:07:43.228Z,10.07
2023-01-09T04:08:43.146Z,10.07
2023-01-09T04:09:43.153Z,10.22
2023-01-09T04:10:43.235Z,10.2
2023-01-09T04:11:43.211Z,10.13
2023-01-09T04:12:43.220Z,10.1
2023-01-09T04:13:44.257Z,10.04
2023-01-09T04:14:43.392Z,10.16
2023-01-09T04:15:43.258Z,10.05
2023-01-09T04:16:43.586Z,10.12
2023-01-09T04:17:43.285Z,10.05
2023-01-09T04:18:43.046Z,10.17
2023-01-09T04:19:43.450Z,10.13
2023-01-09T04:20:43.337Z,10.09
2023-01-09T04:21:43.450Z,10.15
2023-01-09T04:22:43.515Z,10.04
2023-01-09T04:23:43.389Z,10.09
2023-01-09T04:24:43.884Z,10.12
2023-01-09T04:25:43.416Z,10.13
2023-01-09T04:26:43.484Z,10.05
2023-01-09T04:27:43.217Z,10.1
2023-01-09T04:28:43.190Z,10.09
2023-01-09T04:29:42.961Z,10.15
2023-01-09T04:30:43.507Z,10.07
2023-01-09T04:31:43.464Z,10.15
2023-01-09T04:32:43.523Z,10.12
2023-01-09T04:33:43.536Z,10.01
2023-01-09T04:34:43.042Z,10.04
2023-01-09T04:35:43.313Z,10.12
2023-01-09T04:36:43.585Z,10.1
2023-01-09T04:37:43.663Z,10.05
2023-01-09T04:38:43.627Z,10.12
2023-01-09T04:39:43.626Z,10.12
2023-01-09T04:40:43.657Z,10.15
2023-01-09T04:41:43.676Z,10.02
2023-01-09T04:42:43.713Z,10.07
2023-01-09T04:43:43.701Z,10.1
2023-01-09T04:44:43.543Z,10.07
2023-01-09T04:45:43.907Z,10.09
2023-01-09T04:46:43.752Z,10.07
2023-01-09T04:47:43.507Z,10.1
2023-01-09T04:48:43.772Z,10.1
2023-01-09T04:49:44.355Z,10.04
2023-01-09T04:50:43.822Z,10.04
2023-01-09T04:51:43.826Z,10.02
2023-01-09T04:52:44.131Z,10.02
2023-01-09T04:53:43.893Z,10.07
2023-01-09T04:54:43.606Z,10.01
2023-01-09T04:55:43.877Z,10.05
2023-01-09T04:56:43.883Z,10.09
2023-01-09T04:57:43.929Z,10.01
2023-01-09T04:58:43.964Z,10.07
2023-01-09T04:59:43.936Z,10.05
2023-01-09T05:00:44.100Z,10.02
2023-01-09T05:01:44.578Z,9.99
2023-01-09T05:02:43.995Z,10.02
2023-01-09T05:03:44.001Z,10.04
2023-01-09T05:04:43.866Z,10.04
2023-01-09T05:05:44.041Z,10.05
2023-01-09T05:06:44.056Z,10.05
2023-01-09T05:07:43.829Z,10.07
2023-01-09T05:08:44.077Z,10.05
2023-01-09T05:09:44.403Z,10.05
2023-01-09T05:10:43.857Z,10.09
2023-01-09T05:11:44.128Z,9.99
2023-01-09T05:12:44.147Z,9.98
2023-01-09T05:13:44.165Z,10.01
2023-01-09T05:14:44.204Z,9.98
2023-01-09T05:15:44.200Z,10.05
2023-01-09T05:16:44.400Z,10.04
2023-01-09T05:17:43.970Z,10.04
2023-01-09T05:18:43.991Z,10.01
2023-01-09T05:19:44.241Z,9.97
2023-01-09T05:20:43.755Z,10.04
2023-01-09T05:21:44.279Z,9.97
2023-01-09T05:22:44.306Z,10.01
2023-01-09T05:23:44.200Z,9.98
2023-01-09T05:24:44.765Z,9.97
2023-01-09T05:25:44.144Z,10.01
2023-01-09T05:26:44.372Z,10.02
2023-01-09T05:27:44.378Z,10.02
2023-01-09T05:28:44.138Z,10.02
2023-01-09T05:29:44.143Z,10.02
2023-01-09T05:30:44.465Z,9.98
2023-01-09T05:31:44.374Z,9.98
2023-01-09T05:32:44.186Z,10.02
2023-01-09T05:33:44.237Z,10.01
2023-01-09T05:34:44.482Z,10.01
2023-01-09T05:35:44.247Z,10.02
2023-01-09T05:36:44.739Z,10.05
2023-01-09T05:37:44.294Z,9.95
2023-01-09T05:38:44.539Z,10.01
2023-01-09T05:39:44.553Z,10.02
2023-01-09T05:40:45.303Z,9.92
2023-01-09T05:41:44.655Z,10.01
2023-01-09T05:42:44.632Z,10.01
2023-01-09T05:43:44.646Z,9.89
2023-01-09T05:44:44.109Z,9.94
2023-01-09T05:45:44.837Z,9.94
2023-01-09T05:46:44.710Z,9.99
2023-01-09T05:47:44.444Z,9.91
2023-01-09T05:48:44.695Z,9.92
2023-01-09T05:49:44.737Z,9.95
2023-01-09T05:50:44.749Z,9.84
2023-01-09T05:51:44.739Z,9.91
2023-01-09T05:52:44.748Z,9.94
2023-01-09T05:53:44.777Z,9.91
2023-01-09T05:54:44.798Z,9.94
2023-01-09T05:55:44.563Z,9.92
2023-01-09T05:56:44.821Z,9.97
2023-01-09T05:57:44.895Z,9.86
2023-01-09T05:58:44.882Z,9.89
2023-01-09T05:59:44.609Z,9.99
2023-01-09T06:00:44.891Z,9.97
2023-01-09T06:01:44.975Z,9.87
2023-01-09T06:02:45.336Z,9.89
2023-01-09T06:03:44.687Z,9.87
2023-01-09T06:04:44.953Z,9.92
2023-01-09T06:05:44.458Z,9.86
2023-01-09T06:06:44.472Z,9.83
2023-01-09T06:07:44.996Z,9.87
2023-01-09T06:08:44.755Z,9.89
2023-01-09T06:09:44.767Z,9.82
2023-01-09T06:10:45.057Z,9.89
2023-01-09T06:11:45.110Z,9.87
2023-01-09T06:12:45.074Z,9.94
2023-01-09T06:13:45.148Z,9.84
2023-01-09T06:14:45.120Z,9.86
2023-01-09T06:15:45.370Z,9.87
2023-01-09T06:16:45.131Z,9.86
2023-01-09T06:17:44.883Z,9.86
2023-01-09T06:18:45.201Z,9.91
2023-01-09T06:19:45.187Z,9.83
2023-01-09T06:20:45.204Z,9.92
2023-01-09T06:21:45.202Z,9.92
2023-01-09T06:22:45.255Z,9.92
2023-01-09T06:23:45.244Z,9.86
2023-01-09T06:24:45.059Z,9.86
2023-01-09T06:25:45.038Z,10.02
2023-01-09T06:26:45.037Z,9.74
2023-01-09T06:27:45.316Z,9.83
2023-01-09T06:28:47.193Z,9.83
2023-01-09T06:29:45.398Z,9.84
2023-01-09T06:30:45.379Z,9.8
2023-01-09T06:31:45.376Z,9.84
2023-01-09T06:32:45.378Z,9.74
2023-01-09T06:33:45.165Z,9.76
2023-01-09T06:34:45.429Z,9.82
2023-01-09T06:35:45.436Z,9.73
2023-01-09T06:36:45.443Z,9.89
2023-01-09T06:37:45.196Z,9.83
2023-01-09T06:38:45.492Z,9.8
2023-01-09T06:39:45.480Z,9.79
2023-01-09T06:40:45.526Z,9.76
2023-01-09T06:41:47.076Z,9.76
2023-01-09T06:42:45.560Z,9.76
2023-01-09T06:43:45.586Z,9.79
2023-01-09T06:44:45.563Z,9.77
2023-01-09T06:45:45.660Z,9.74
2023-01-09T06:46:45.598Z,9.76
2023-01-09T06:47:45.128Z,9.84
2023-01-09T06:48:45.373Z,9.86
2023-01-09T06:49:45.643Z,9.76
2023-01-09T06:50:45.696Z,9.8
2023-01-09T06:51:45.419Z,9.79
2023-01-09T06:52:45.693Z,9.86
2023-01-09T06:53:45.724Z,9.86
2023-01-09T06:54:45.713Z,9.74
2023-01-09T06:55:45.698Z,9.76
2023-01-09T06:56:45.752Z,9.8
2023-01-09T06:57:45.784Z,9.77
2023-01-09T06:58:45.530Z,9.73
2023-01-09T06:59:45.557Z,9.8
2023-01-09T07:00:45.315Z,9.83
2023-01-09T07:01:46.423Z,9.77
2023-01-09T07:02:45.907Z,9.73
2023-01-09T07:03:45.982Z,9.77
2023-01-09T07:04:45.884Z,9.73
2023-01-09T07:05:45.383Z,9.68
2023-01-09T07:06:45.948Z,9.76
2023-01-09T07:07:45.673Z,9.74
2023-01-09T07:08:47.808Z,9.76
2023-01-09T07:09:46.008Z,9.69
2023-01-09T07:10:45.469Z,9.74
2023-01-09T07:11:45.758Z,9.73
2023-01-09T07:12:46.028Z,9.73
2023-01-09T07:13:45.756Z,9.69
2023-01-09T07:14:46.042Z,9.72
2023-01-09T07:15:46.224Z,9.73
2023-01-09T07:16:46.077Z,9.68
2023-01-09T07:17:46.146Z,9.74
2023-01-09T07:18:46.093Z,9.66
2023-01-09T07:19:46.111Z,9.74
2023-01-09T07:20:45.625Z,9.72
2023-01-09T07:21:46.155Z,9.68
2023-01-09T07:22:46.206Z,9.61
2023-01-09T07:23:46.181Z,9.68
2023-01-09T07:24:46.584Z,9.69
2023-01-09T07:25:46.247Z,9.59
2023-01-09T07:26:48.162Z,9.65
2023-01-09T07:27:46.245Z,9.56
2023-01-09T07:28:45.995Z,9.61
2023-01-09T07:29:46.424Z,9.56
2023-01-09T07:30:46.313Z,9.55
2023-01-09T07:31:46.429Z,9.62
2023-01-09T07:32:46.308Z,9.56
2023-01-09T07:33:46.127Z,9.54
2023-01-09T07:34:46.458Z,9.59
2023-01-09T07:35:45.852Z,9.51
2023-01-09T07:36:46.444Z,9.58
2023-01-09T07:37:46.438Z,9.56
2023-01-09T07:38:46.432Z,9.55
2023-01-09T07:39:46.167Z,9.54
2023-01-09T07:40:46.441Z,9.61
2023-01-09T07:41:46.185Z,9.56
2023-01-09T07:42:46.471Z,9.51
2023-01-09T07:43:46.517Z,9.61
2023-01-09T07:44:46.531Z,9.55
2023-01-09T07:45:46.516Z,9.58
2023-01-09T07:46:46.640Z,9.54
2023-01-09T07:47:46.555Z,9.55
2023-01-09T07:48:46.344Z,9.61
2023-01-09T07:49:46.635Z,9.58
2023-01-09T07:50:46.597Z,9.61
2023-01-09T07:51:46.633Z,9.54
2023-01-09T07:52:46.638Z,9.5
2023-01-09T07:53:46.639Z,9.59
2023-01-09T07:54:46.696Z,9.56
2023-01-09T07:55:46.687Z,9.61
2023-01-09T07:56:46.685Z,9.55
2023-01-09T07:57:46.701Z,9.51
2023-01-09T07:58:46.724Z,9.55
2023-01-09T07:59:46.473Z,9.55
2023-01-09T08:00:46.752Z,9.56
2023-01-09T08:01:46.926Z,9.59
2023-01-09T08:02:46.991Z,9.59
2023-01-09T08:03:46.813Z,9.65
2023-01-09T08:04:46.820Z,9.56
2023-01-09T08:05:46.867Z,9.55
2023-01-09T08:06:46.586Z,9.56
2023-01-09T08:07:46.631Z,9.56
2023-01-09T08:08:46.636Z,9.54
2023-01-09T08:09:46.875Z,9.55
2023-01-09T08:10:46.664Z,9.54
2023-01-09T08:11:46.666Z,9.51
2023-01-09T08:12:46.447Z,9.58
2023-01-09T08:13:46.720Z,9.56
2023-01-09T08:14:46.994Z,9.56
2023-01-09T08:15:47.143Z,9.54
2023-01-09T08:16:47.015Z,9.56
2023-01-09T08:17:46.864Z,9.56
2023-01-09T08:18:46.776Z,9.56
2023-01-09T08:19:47.029Z,9.56
2023-01-09T08:20:47.075Z,9.51
2023-01-09T08:21:47.146Z,9.54
2023-01-09T08:22:47.110Z,9.51
2023-01-09T08:23:47.113Z,9.56
2023-01-09T08:24:46.807Z,9.56
2023-01-09T08:25:47.147Z,9.56
2023-01-09T08:26:47.239Z,9.66
2023-01-09T08:27:46.940Z,9.54
2023-01-09T08:28:47.193Z,9.56
2023-01-09T08:29:47.207Z,9.58
2023-01-09T08:30:47.209Z,9.59
2023-01-09T08:31:47.567Z,9.51
2023-01-09T08:32:46.991Z,9.54
2023-01-09T08:33:46.998Z,9.61
2023-01-09T08:34:47.447Z,9.58
2023-01-09T08:35:47.445Z,9.56
2023-01-09T08:36:47.331Z,9.66
2023-01-09T08:37:47.448Z,9.58
2023-01-09T08:38:47.338Z,9.66
2023-01-09T08:39:48.627Z,9.64
2023-01-09T08:40:47.376Z,9.64
2023-01-09T08:41:47.117Z,9.55
2023-01-09T08:42:47.445Z,9.61
2023-01-09T08:43:47.158Z,9.59
2023-01-09T08:44:47.177Z,9.62
2023-01-09T08:45:47.188Z,9.62
2023-01-09T08:46:47.649Z,9.66
2023-01-09T08:47:47.488Z,9.64
2023-01-09T08:48:47.230Z,9.59
2023-01-09T08:49:47.563Z,9.64
2023-01-09T08:50:47.525Z,9.65
2023-01-09T08:51:47.553Z,9.55
2023-01-09T08:52:47.042Z,9.55
2023-01-09T08:53:47.634Z,9.65
2023-01-09T08:54:47.587Z,9.62
2023-01-09T08:55:47.344Z,9.51
2023-01-09T08:56:47.635Z,9.64
2023-01-09T08:57:47.384Z,9.69
2023-01-09T08:58:47.688Z,9.66
2023-01-09T08:59:47.661Z,9.62
2023-01-09T09:00:47.424Z,9.55
2023-01-09T09:01:47.842Z,9.55
2023-01-09T09:02:47.888Z,9.64
2023-01-09T09:03:47.724Z,9.68
2023-01-09T09:04:47.763Z,9.64
2023-01-09T09:05:49.272Z,9.56
2023-01-09T09:06:47.768Z,9.55
2023-01-09T09:07:47.785Z,9.64
2023-01-09T09:08:47.791Z,9.65
2023-01-09T09:09:47.894Z,9.64
2023-01-09T09:10:47.825Z,9.66
2023-01-09T09:11:47.846Z,9.56
2023-01-09T09:12:47.846Z,9.65
2023-01-09T09:13:47.361Z,9.55
2023-01-09T09:14:47.922Z,9.54
2023-01-09T09:15:48.043Z,9.59
2023-01-09T09:16:47.708Z,9.61
2023-01-09T09:17:47.953Z,9.58
2023-01-09T09:18:47.695Z,9.55
2023-01-09T09:19:47.975Z,9.64
2023-01-09T09:20:47.484Z,9.51
2023-01-09T09:21:48.003Z,9.56
2023-01-09T09:22:48.021Z,9.64
2023-01-09T09:23:47.789Z,9.56
2023-01-09T09:24:48.246Z,9.59
2023-01-09T09:25:48.107Z,9.62
2023-01-09T09:26:49.304Z,9.64
2023-01-09T09:27:48.119Z,9.55
2023-01-09T09:28:48.116Z,9.68
2023-01-09T09:29:48.119Z,9.54
2023-01-09T09:30:48.171Z,9.61
2023-01-09T09:31:47.891Z,9.58
2023-01-09T09:32:48.081Z,9.68
2023-01-09T09:33:47.931Z,9.66
2023-01-09T09:34:48.226Z,9.72
2023-01-09T09:35:48.216Z,9.68
2023-01-09T09:36:48.407Z,9.64
2023-01-09T09:37:47.720Z,9.61
2023-01-09T09:38:48.000Z,9.72
2023-01-09T09:39:48.293Z,9.61
2023-01-09T09:40:48.032Z,9.69
2023-01-09T09:41:48.405Z,9.69
2023-01-09T09:42:48.320Z,9.61
2023-01-09T09:43:48.391Z,9.73
2023-01-09T09:44:56.471Z,9.66
2023-01-09T09:45:48.107Z,9.61
2023-01-09T09:46:48.678Z,9.61
2023-01-09T09:47:48.502Z,9.65
2023-01-09T09:48:47.903Z,9.65
2023-01-09T09:49:48.435Z,9.66
2023-01-09T09:50:48.447Z,9.62
2023-01-09T09:51:48.456Z,9.66
2023-01-09T09:52:48.252Z,9.68
2023-01-09T09:53:48.234Z,9.69
2023-01-09T09:54:48.507Z,9.77
2023-01-09T09:55:48.271Z,9.65
2023-01-09T09:56:48.279Z,9.73
2023-01-09T09:57:48.614Z,9.73
2023-01-09T09:58:48.568Z,9.68
2023-01-09T09:59:48.617Z,9.73
2023-01-09T10:00:48.608Z,9.74
2023-01-09T10:01:48.613Z,9.65
2023-01-09T10:02:48.861Z,9.69
2023-01-09T10:03:49.035Z,9.68
2023-01-09T10:04:48.398Z,9.73
2023-01-09T10:05:48.710Z,9.68
2023-01-09T10:06:48.710Z,9.73
2023-01-09T10:07:48.695Z,9.68
2023-01-09T10:08:48.241Z,9.74
2023-01-09T10:09:48.764Z,9.66
2023-01-09T10:10:48.757Z,9.61
2023-01-09T10:11:48.786Z,9.72
2023-01-09T10:12:48.511Z,9.73
2023-01-09T10:13:48.957Z,9.77
2023-01-09T10:14:48.821Z,9.72
2023-01-09T10:15:49.071Z,9.68
2023-01-09T10:16:48.607Z,9.76
2023-01-09T10:17:48.858Z,9.76
2023-01-09T10:18:48.901Z,9.73
2023-01-09T10:19:48.891Z,9.65
2023-01-09T10:20:48.931Z,9.76
2023-01-09T10:21:48.916Z,9.74
2023-01-09T10:22:48.955Z,9.65
2023-01-09T10:23:48.990Z,9.66
2023-01-09T10:24:49.327Z,9.65
2023-01-09T10:25:49.039Z,9.74
2023-01-09T10:26:48.770Z,9.76
2023-01-09T10:27:49.044Z,9.76
2023-01-09T10:28:49.190Z,9.66
2023-01-09T10:29:49.093Z,9.69
2023-01-09T10:30:49.082Z,9.69
2023-01-09T10:31:49.391Z,9.72
2023-01-09T10:32:49.104Z,9.69
2023-01-09T10:33:49.119Z,9.65
2023-01-09T10:34:51.454Z,9.73
2023-01-09T10:35:52.969Z,9.73
2023-01-09T10:36:49.058Z,9.73
2023-01-09T10:37:49.179Z,9.74
2023-01-09T10:38:48.937Z,9.69
2023-01-09T10:39:49.132Z,9.73
2023-01-09T10:40:48.952Z,9.73
2023-01-09T10:41:49.228Z,9.64
2023-01-09T10:42:48.987Z,9.66
2023-01-09T10:43:49.003Z,9.69
2023-01-09T10:44:49.374Z,9.76
2023-01-09T10:45:49.460Z,9.68
2023-01-09T10:46:49.565Z,9.74
2023-01-09T10:47:49.338Z,9.69
2023-01-09T10:48:49.360Z,9.72
2023-01-09T10:49:49.413Z,9.69
2023-01-09T10:50:49.420Z,9.68
2023-01-09T10:51:49.413Z,9.73
2023-01-09T10:52:49.400Z,9.73
2023-01-09T10:53:49.168Z,9.74
2023-01-09T10:54:49.215Z,9.69
2023-01-09T10:55:49.470Z,9.69
2023-01-09T10:56:49.472Z,9.69
2023-01-09T10:57:49.507Z,9.72
2023-01-09T10:58:49.555Z,9.72
2023-01-09T10:59:49.268Z,9.73
2023-01-09T11:00:49.552Z,9.68
2023-01-09T11:01:49.603Z,9.72
2023-01-09T11:02:49.571Z,9.69
2023-01-09T11:03:49.682Z,9.68
2023-01-09T11:04:49.577Z,9.74
2023-01-09T11:05:49.599Z,9.66
2023-01-09T11:06:49.639Z,9.76
2023-01-09T11:07:49.369Z,9.69
2023-01-09T11:08:49.660Z,9.74
2023-01-09T11:09:49.657Z,9.66
2023-01-09T11:10:49.686Z,9.77
2023-01-09T11:11:51.989Z,9.73
2023-01-09T11:12:49.735Z,9.69
2023-01-09T11:13:49.733Z,9.74
2023-01-09T11:14:49.740Z,9.72
2023-01-09T11:15:49.909Z,9.77
2023-01-09T11:16:49.795Z,9.77
2023-01-09T11:17:49.902Z,9.82
2023-01-09T11:18:49.540Z,9.79
2023-01-09T11:19:49.299Z,9.77
2023-01-09T11:20:49.875Z,9.74
2023-01-09T11:21:49.841Z,9.74
2023-01-09T11:22:49.929Z,9.77
2023-01-09T11:23:49.871Z,9.68
2023-01-09T11:24:50.099Z,9.76
2023-01-09T11:25:49.648Z,9.8
2023-01-09T11:26:49.931Z,9.77
2023-01-09T11:27:49.955Z,9.74
2023-01-09T11:28:49.955Z,9.73
2023-01-09T11:29:49.716Z,9.74
2023-01-09T11:30:49.775Z,9.73
2023-01-09T11:31:50.254Z,9.79
2023-01-09T11:32:50.024Z,9.77
2023-01-09T11:33:50.098Z,9.74
2023-01-09T11:34:49.786Z,9.73
2023-01-09T11:35:50.072Z,9.77
2023-01-09T11:36:50.202Z,9.76
2023-01-09T11:37:49.841Z,9.76
2023-01-09T11:38:50.145Z,9.79
2023-01-09T11:39:50.156Z,9.76
2023-01-09T11:40:50.142Z,9.77
2023-01-09T11:41:51.992Z,9.79
2023-01-09T11:42:50.197Z,9.73
2023-01-09T11:43:50.222Z,9.76
2023-01-09T11:44:50.211Z,9.73
2023-01-09T11:46:04.233Z,9.8
2023-01-09T11:46:50.470Z,9.76
2023-01-09T11:47:50.306Z,9.77
2023-01-09T11:48:50.256Z,9.77
2023-01-09T11:49:52.936Z,9.74
2023-01-09T11:50:50.031Z,9.76
2023-01-09T11:51:50.323Z,9.79
2023-01-09T11:52:50.320Z,9.76
2023-01-09T11:53:49.846Z,9.77
2023-01-09T11:54:50.134Z,9.77
2023-01-09T11:55:50.387Z,9.76
2023-01-09T11:56:50.131Z,9.83
2023-01-09T11:57:50.410Z,9.74
2023-01-09T11:58:50.425Z,9.82
2023-01-09T11:59:50.177Z,9.8
2023-01-09T12:00:50.195Z,9.82
2023-01-09T12:01:50.609Z,9.82
2023-01-09T12:02:53.191Z,9.73
2023-01-09T12:03:50.227Z,9.82
2023-01-09T12:04:50.512Z,9.82
2023-01-09T12:05:50.665Z,9.8
2023-01-09T12:06:50.537Z,9.76
2023-01-09T12:07:50.329Z,9.8
2023-01-09T12:08:50.565Z,9.84
2023-01-09T12:09:50.591Z,9.76
2023-01-09T12:10:50.657Z,9.83
2023-01-09T12:11:50.630Z,9.8
2023-01-09T12:12:50.643Z,9.73
2023-01-09T12:13:50.668Z,9.77
2023-01-09T12:14:50.679Z,9.83
2023-01-09T12:15:50.712Z,9.76
2023-01-09T12:16:50.743Z,9.84
2023-01-09T12:17:50.752Z,9.86
2023-01-09T12:18:50.754Z,9.82
2023-01-09T12:19:50.765Z,9.76
2023-01-09T12:20:50.756Z,9.84
2023-01-09T12:21:50.821Z,9.76
2023-01-09T12:22:50.552Z,9.74
2023-01-09T12:23:50.802Z,9.8
2023-01-09T12:24:51.192Z,9.77
2023-01-09T12:25:50.579Z,9.8
2023-01-09T12:26:50.882Z,9.76
2023-01-09T12:27:50.871Z,9.73
2023-01-09T12:28:50.632Z,9.76
2023-01-09T12:29:50.897Z,9.76
2023-01-09T12:30:50.912Z,9.79
2023-01-09T12:31:51.211Z,9.76
2023-01-09T12:32:50.710Z,9.76
2023-01-09T12:33:51.008Z,9.74
2023-01-09T12:34:50.988Z,9.8
2023-01-09T12:35:50.717Z,9.8
2023-01-09T12:36:51.158Z,9.74
2023-01-09T12:37:50.825Z,9.76
2023-01-09T12:38:51.056Z,9.79
2023-01-09T12:39:51.066Z,9.79
2023-01-09T12:40:50.847Z,9.86
2023-01-09T12:41:50.818Z,9.76
2023-01-09T12:42:51.144Z,9.74
2023-01-09T12:43:51.115Z,9.89
2023-01-09T12:44:51.152Z,9.82
2023-01-09T12:45:51.389Z,9.79
2023-01-09T12:46:51.156Z,9.74
2023-01-09T12:47:51.431Z,9.79
2023-01-09T12:48:51.191Z,9.82
2023-01-09T12:49:50.963Z,9.89
2023-01-09T12:50:51.214Z,9.76
2023-01-09T12:51:50.976Z,9.84
2023-01-09T12:52:51.285Z,9.76
2023-01-09T12:53:51.309Z,9.87
2023-01-09T12:54:50.782Z,9.77
2023-01-09T12:55:51.054Z,9.86
2023-01-09T12:56:51.110Z,9.8
2023-01-09T12:57:51.091Z,9.76
2023-01-09T12:58:51.373Z,9.76
2023-01-09T12:59:51.333Z,9.77
2023-01-09T13:00:51.260Z,9.74
2023-01-09T13:01:51.432Z,9.89
2023-01-09T13:03:03.731Z,9.79
2023-01-09T13:03:51.156Z,9.8
2023-01-09T13:04:51.436Z,9.8
2023-01-09T13:05:51.480Z,9.86
2023-01-09T13:06:53.420Z,9.89
2023-01-09T13:07:51.228Z,9.86
2023-01-09T13:08:51.567Z,9.86
2023-01-09T13:09:51.337Z,9.86